Corpus Christi Naval Air Station/Truax Field
KNGP : now visible

Airfield :











YOU CAN JOIN US ON...

 
LOGIN :

Register | Disclaimer

   EN    FR    IT 

 









Legend :    VFR   Marginal VFR   IFR   Intensive IFR   Very Intensive IFR
Visi :
Ceiling :
>= 8 km
>= 3000ft
5 to 8 km
1000 to 3000 ft
1500m to 5 km
500 to 1000 ft
800 to 1500m
200 to 500 ft
< 800m
< 200 ft
Symbols :   Thunderstorms  Fog  Heavy snow  Heavy precipitations  Wind > 20 kt






- Airport Elevation : 18 ft


KNGP - Corpus Christi Naval Air Station/Truax Field

CURRENT METAR :
  • 050656Z AUTO 15008KT 10SM FEW020 23/21 A3003 RMK AO2 SLP169 T02280211 $

EXPIRED METARs :
  • 050556Z AUTO 15009KT 10SM SCT021 23/21 A3004 RMK AO2 SLP171 T02330211 10239 20228 402830217 58002 $
  • 050523Z AUTO 14009KT 10SM SCT019 23/21 A3005 RMK AO2 T02330211 $
  • 050508Z AUTO 14009KT 10SM BKN019 23/21 A3005 RMK AO2 T02330211 $
  • 050456Z AUTO 14009KT 10SM SCT019 23/21 A3005 RMK AO2 SLP176 T02330211 $

TAF TAF KNGP
Valid from the 05 at 07:00 until the 06 at 07:00 UTC


0507/0607 16012KT 9999 BKN030 BKN250 QNH2997INS
TEMPO 0507/0513 9999 FEW030 BKN250
BECMG 0520/0522 15014KT 9999 BKN020 OVC250 QNH2986INS
TEMPO 0522/0602 9999 SCT020 OVC250 T22/0511Z T23/0603Z FN00240
KZHU FIR / North America



MET'MAP, your aeronautical weather chart ! - Copyright ORBIFLY December 2007 - Disclaimer

ORBIFLY MET'MAP TEAM :

Programming & Development : Alexandra Zaïnal
Concept & original design : Baudouin d'Aumeries
Assistance for programming : Marc-Olivier Méhu
Technical & hardware support : Manuel Goepfert

Contact : metmap@orbifly.com




SOURCES & CREDITS :

   NOAA       Earth
Advisory